Impacts METAR Board INFO
IDs:

KMDW - Chicago/Midway Intl, IL, US

Updated at: 1556 UTC 19 Nov 2017
Potential Impact None Slight Moderate High
Time19/03Z 19/04Z 19/05Z 19/06Z 19/07Z 19/08Z 19/09Z 19/10Z 19/11Z 19/12Z 19/13Z 19/14Z 19/15Z
VIS10 10 10 10 10 10 10 10 10 10 10 10 10
CIG33 32 36 28 29 30 32 31 30 30 29 -- --
CoverOVCOVCOVCOVCOVCOVCOVCOVCOVCBKNBKNSCTSCT
FltCatVFRVFRVFRMVFRMVFRMVFRVFRVFRMVFRMVFRMVFRVFRVFR
WX--------------------------
WDir330330320300310310320330300310290310300
WSpd15 17 12 12 12 15 14 10 12 12 12 12 13
WGst24 28 -- 17 -- 20 -- -- -- -- 20 -- 19
Raw hourly METARs
KMDW 190253Z 33015G24KT 10SM FEW026 OVC033 04/M01 A2977 RMK AO2 PK WND 34028/0241 SLP086 T00441011 52035
KMDW 190353Z 33017G28KT 10SM OVC032 04/M02 A2980 RMK AO2 PK WND 32028/0348 SLP099 T00391022
KMDW 190453Z 32012KT 10SM OVC036 04/M02 A2983 RMK AO2 PK WND 33029/0425 SLP108 T00391017
KMDW 190553Z 30012G17KT 10SM OVC028 03/M01 A2985 RMK AO2 SLP116 T00331011 10044 20033 400890022 51028
KMDW 190653Z 31012KT 10SM OVC029 03/M03 A2986 RMK AO2 SLP119 T00331028
KMDW 190753Z 31015G20KT 10SM OVC030 02/M03 A2988 RMK AO2 SLP129 T00221033
KMDW 190853Z 32014KT 10SM OVC032 02/M04 A2991 RMK AO2 SLP136 T00171044 53019
KMDW 190953Z 33010KT 10SM OVC031 01/M04 A2992 RMK AO2 SLP142 T00111044
KMDW 191053Z 30012KT 10SM OVC030 01/M05 A2995 RMK AO2 SLP150 T00111050
KMDW 191153Z 31012KT 10SM BKN030 M01/M06 A2997 RMK AO2 PRESRR SLP157 70057 T10061061 10033 21006 53020 $
KMDW 191253Z 29012G20KT 10SM BKN029 BKN250 M01/M06 A2999 RMK AO2 SLP164 T10061061
KMDW 191353Z 31012KT 10SM SCT029 M01/M07 A3001 RMK AO2 SLP174 T10111072
KMDW 191453Z 30013G19KT 10SM SCT029 M01/M07 A3003 RMK AO2 SLP177 T10061067 51019